sensor_id;sensor_type;location;lat;lon;timestamp;P1;durP1;ratioP1;P2;durP2;ratioP2
2998;SDS011;1509;51.964;7.628;2023-07-29T00:01:22;7.37;;;5.10;;
2998;SDS011;1509;51.964;7.628;2023-07-29T00:03:47;6.93;;;5.00;;
2998;SDS011;1509;51.964;7.628;2023-07-29T00:06:13;7.00;;;6.03;;
2998;SDS011;1509;51.964;7.628;2023-07-29T00:08:38;6.33;;;5.73;;
2998;SDS011;1509;51.964;7.628;2023-07-29T00:11:07;5.67;;;4.70;;
2998;SDS011;1509;51.964;7.628;2023-07-29T00:13:32;8.30;;;5.77;;
2998;SDS011;1509;51.964;7.628;2023-07-29T00:15:58;5.57;;;5.00;;
2998;SDS011;1509;51.964;7.628;2023-07-29T00:18:23;6.97;;;5.53;;
2998;SDS011;1509;51.964;7.628;2023-07-29T00:20:49;6.90;;;5.17;;
2998;SDS011;1509;51.964;7.628;2023-07-29T00:23:16;5.73;;;4.97;;
2998;SDS011;1509;51.964;7.628;2023-07-29T00:25:44;7.03;;;6.03;;
2998;SDS011;1509;51.964;7.628;2023-07-29T00:28:11;6.17;;;4.90;;
2998;SDS011;1509;51.964;7.628;2023-07-29T00:30:37;5.70;;;5.10;;
2998;SDS011;1509;51.964;7.628;2023-07-29T00:33:03;6.30;;;4.90;;
2998;SDS011;1509;51.964;7.628;2023-07-29T00:35:28;7.07;;;4.90;;
2998;SDS011;1509;51.964;7.628;2023-07-29T00:37:54;8.07;;;4.57;;
2998;SDS011;1509;51.964;7.628;2023-07-29T00:40:20;6.40;;;4.70;;
2998;SDS011;1509;51.964;7.628;2023-07-29T00:42:46;5.67;;;4.50;;
2998;SDS011;1509;51.964;7.628;2023-07-29T00:45:13;5.33;;;4.33;;
2998;SDS011;1509;51.964;7.628;2023-07-29T00:47:38;5.70;;;3.80;;
2998;SDS011;1509;51.964;7.628;2023-07-29T00:50:05;4.93;;;3.93;;
2998;SDS011;1509;51.964;7.628;2023-07-29T00:52:32;6.37;;;5.00;;
2998;SDS011;1509;51.964;7.628;2023-07-29T00:54:58;4.97;;;4.27;;
2998;SDS011;1509;51.964;7.628;2023-07-29T00:57:23;6.33;;;5.00;;
2998;SDS011;1509;51.964;7.628;2023-07-29T00:59:50;6.00;;;5.20;;
2998;SDS011;1509;51.964;7.628;2023-07-29T01:02:19;5.37;;;4.87;;
2998;SDS011;1509;51.964;7.628;2023-07-29T01:04:45;6.20;;;5.10;;
2998;SDS011;1509;51.964;7.628;2023-07-29T01:10:00;6.00;;;5.30;;
2998;SDS011;1509;51.964;7.628;2023-07-29T01:15:11;7.67;;;5.27;;
2998;SDS011;1509;51.964;7.628;2023-07-29T01:17:47;11.50;;;5.57;;
2998;SDS011;1509;51.964;7.628;2023-07-29T01:20:45;7.00;;;5.90;;
2998;SDS011;1509;51.964;7.628;2023-07-29T01:23:12;6.60;;;5.53;;
2998;SDS011;1509;51.964;7.628;2023-07-29T01:25:41;7.07;;;5.67;;
2998;SDS011;1509;51.964;7.628;2023-07-29T01:28:06;6.07;;;5.17;;
2998;SDS011;1509;51.964;7.628;2023-07-29T01:30:37;7.90;;;5.00;;
2998;SDS011;1509;51.964;7.628;2023-07-29T01:33:48;7.00;;;6.27;;
2998;SDS011;1509;51.964;7.628;2023-07-29T01:35:58;7.37;;;5.60;;
2998;SDS011;1509;51.964;7.628;2023-07-29T01:38:29;7.93;;;5.70;;
2998;SDS011;1509;51.964;7.628;2023-07-29T01:41:02;6.20;;;5.50;;
2998;SDS011;1509;51.964;7.628;2023-07-29T01:43:29;8.30;;;5.30;;
2998;SDS011;1509;51.964;7.628;2023-07-29T01:45:56;6.43;;;5.70;;
2998;SDS011;1509;51.964;7.628;2023-07-29T01:48:24;8.70;;;5.63;;
2998;SDS011;1509;51.964;7.628;2023-07-29T01:50:50;7.00;;;5.50;;
2998;SDS011;1509;51.964;7.628;2023-07-29T01:53:15;8.00;;;6.20;;
2998;SDS011;1509;51.964;7.628;2023-07-29T01:55:44;11.00;;;5.20;;
2998;SDS011;1509;51.964;7.628;2023-07-29T01:58:10;5.90;;;4.23;;
2998;SDS011;1509;51.964;7.628;2023-07-29T02:00:36;6.17;;;4.87;;
2998;SDS011;1509;51.964;7.628;2023-07-29T02:03:02;7.00;;;5.07;;
2998;SDS011;1509;51.964;7.628;2023-07-29T02:05:27;10.03;;;5.13;;
2998;SDS011;1509;51.964;7.628;2023-07-29T02:07:53;6.27;;;4.97;;
2998;SDS011;1509;51.964;7.628;2023-07-29T02:10:20;6.97;;;5.00;;
2998;SDS011;1509;51.964;7.628;2023-07-29T02:12:45;6.50;;;4.97;;
2998;SDS011;1509;51.964;7.628;2023-07-29T02:15:11;6.37;;;4.97;;
2998;SDS011;1509;51.964;7.628;2023-07-29T02:17:36;6.63;;;5.03;;
2998;SDS011;1509;51.964;7.628;2023-07-29T02:20:02;6.43;;;5.30;;
2998;SDS011;1509;51.964;7.628;2023-07-29T02:22:29;6.83;;;4.67;;
2998;SDS011;1509;51.964;7.628;2023-07-29T02:24:55;6.60;;;5.30;;
2998;SDS011;1509;51.964;7.628;2023-07-29T02:27:20;5.97;;;4.57;;
2998;SDS011;1509;51.964;7.628;2023-07-29T02:29:46;6.20;;;4.47;;
2998;SDS011;1509;51.964;7.628;2023-07-29T02:32:12;6.80;;;4.50;;
2998;SDS011;1509;51.964;7.628;2023-07-29T02:34:37;8.70;;;4.80;;
2998;SDS011;1509;51.964;7.628;2023-07-29T02:37:03;5.63;;;4.77;;
2998;SDS011;1509;51.964;7.628;2023-07-29T02:39:29;7.23;;;4.93;;
2998;SDS011;1509;51.964;7.628;2023-07-29T02:41:55;5.57;;;4.57;;
2998;SDS011;1509;51.964;7.628;2023-07-29T02:44:21;5.23;;;4.60;;
2998;SDS011;1509;51.964;7.628;2023-07-29T02:46:46;5.00;;;4.40;;
2998;SDS011;1509;51.964;7.628;2023-07-29T02:49:12;5.97;;;5.07;;
2998;SDS011;1509;51.964;7.628;2023-07-29T02:51:38;7.57;;;4.93;;
2998;SDS011;1509;51.964;7.628;2023-07-29T02:54:03;5.87;;;5.30;;
2998;SDS011;1509;51.964;7.628;2023-07-29T02:56:29;5.73;;;5.13;;
2998;SDS011;1509;51.964;7.628;2023-07-29T02:58:55;6.40;;;5.57;;
2998;SDS011;1509;51.964;7.628;2023-07-29T03:01:23;5.90;;;4.50;;
2998;SDS011;1509;51.964;7.628;2023-07-29T03:03:50;6.43;;;5.10;;
2998;SDS011;1509;51.964;7.628;2023-07-29T03:06:16;5.90;;;5.30;;
2998;SDS011;1509;51.964;7.628;2023-07-29T03:08:42;6.80;;;6.10;;
2998;SDS011;1509;51.964;7.628;2023-07-29T03:11:08;5.40;;;4.90;;
2998;SDS011;1509;51.964;7.628;2023-07-29T03:13:35;7.67;;;5.30;;
2998;SDS011;1509;51.964;7.628;2023-07-29T03:16:05;7.07;;;5.67;;
2998;SDS011;1509;51.964;7.628;2023-07-29T03:18:30;6.67;;;5.67;;
2998;SDS011;1509;51.964;7.628;2023-07-29T03:20:56;7.13;;;5.40;;
2998;SDS011;1509;51.964;7.628;2023-07-29T03:23:22;9.40;;;6.10;;
2998;SDS011;1509;51.964;7.628;2023-07-29T03:25:50;8.47;;;5.53;;
2998;SDS011;1509;51.964;7.628;2023-07-29T03:28:21;8.50;;;6.37;;
2998;SDS011;1509;51.964;7.628;2023-07-29T03:30:51;8.20;;;6.87;;
2998;SDS011;1509;51.964;7.628;2023-07-29T03:33:16;7.60;;;5.60;;
2998;SDS011;1509;51.964;7.628;2023-07-29T03:35:42;8.80;;;6.33;;
2998;SDS011;1509;51.964;7.628;2023-07-29T03:38:09;8.67;;;6.20;;
2998;SDS011;1509;51.964;7.628;2023-07-29T03:40:36;7.47;;;5.23;;
2998;SDS011;1509;51.964;7.628;2023-07-29T03:43:02;7.20;;;5.37;;
2998;SDS011;1509;51.964;7.628;2023-07-29T03:45:28;6.37;;;5.57;;
2998;SDS011;1509;51.964;7.628;2023-07-29T03:47:59;8.33;;;5.60;;
2998;SDS011;1509;51.964;7.628;2023-07-29T03:50:25;7.50;;;6.10;;
2998;SDS011;1509;51.964;7.628;2023-07-29T03:52:51;6.53;;;5.83;;
2998;SDS011;1509;51.964;7.628;2023-07-29T03:55:16;9.27;;;6.73;;
2998;SDS011;1509;51.964;7.628;2023-07-29T03:57:42;9.17;;;6.83;;
2998;SDS011;1509;51.964;7.628;2023-07-29T04:00:07;9.97;;;6.50;;
2998;SDS011;1509;51.964;7.628;2023-07-29T04:02:36;9.20;;;5.80;;
2998;SDS011;1509;51.964;7.628;2023-07-29T04:05:03;10.23;;;6.53;;
2998;SDS011;1509;51.964;7.628;2023-07-29T04:07:29;8.07;;;6.50;;
2998;SDS011;1509;51.964;7.628;2023-07-29T04:09:55;11.80;;;6.93;;
2998;SDS011;1509;51.964;7.628;2023-07-29T04:12:21;9.27;;;6.47;;
2998;SDS011;1509;51.964;7.628;2023-07-29T04:14:48;10.83;;;6.20;;
2998;SDS011;1509;51.964;7.628;2023-07-29T04:17:14;9.60;;;7.50;;
2998;SDS011;1509;51.964;7.628;2023-07-29T04:19:39;7.43;;;5.90;;
2998;SDS011;1509;51.964;7.628;2023-07-29T04:22:05;9.80;;;6.40;;
2998;SDS011;1509;51.964;7.628;2023-07-29T04:24:30;10.17;;;6.90;;
2998;SDS011;1509;51.964;7.628;2023-07-29T04:26:56;9.93;;;7.80;;
2998;SDS011;1509;51.964;7.628;2023-07-29T04:29:21;10.40;;;7.63;;
2998;SDS011;1509;51.964;7.628;2023-07-29T04:31:50;8.80;;;7.00;;
2998;SDS011;1509;51.964;7.628;2023-07-29T04:34:16;8.20;;;6.10;;
2998;SDS011;1509;51.964;7.628;2023-07-29T04:36:42;9.63;;;7.20;;
2998;SDS011;1509;51.964;7.628;2023-07-29T04:39:08;11.97;;;7.27;;
2998;SDS011;1509;51.964;7.628;2023-07-29T04:41:34;8.60;;;6.43;;
2998;SDS011;1509;51.964;7.628;2023-07-29T04:43:59;7.57;;;6.40;;
2998;SDS011;1509;51.964;7.628;2023-07-29T04:46:25;7.60;;;6.07;;
2998;SDS011;1509;51.964;7.628;2023-07-29T04:48:50;8.30;;;6.70;;
2998;SDS011;1509;51.964;7.628;2023-07-29T04:51:16;7.73;;;6.93;;
2998;SDS011;1509;51.964;7.628;2023-07-29T04:53:41;8.67;;;7.70;;
2998;SDS011;1509;51.964;7.628;2023-07-29T04:56:10;6.90;;;6.20;;
2998;SDS011;1509;51.964;7.628;2023-07-29T04:58:36;7.70;;;6.20;;
2998;SDS011;1509;51.964;7.628;2023-07-29T05:01:02;8.47;;;7.03;;
2998;SDS011;1509;51.964;7.628;2023-07-29T05:03:28;8.50;;;6.27;;
2998;SDS011;1509;51.964;7.628;2023-07-29T05:05:54;10.40;;;7.00;;
2998;SDS011;1509;51.964;7.628;2023-07-29T05:08:21;8.63;;;7.20;;
2998;SDS011;1509;51.964;7.628;2023-07-29T05:10:50;8.20;;;6.77;;
2998;SDS011;1509;51.964;7.628;2023-07-29T05:13:17;8.07;;;6.03;;
2998;SDS011;1509;51.964;7.628;2023-07-29T05:15:43;8.60;;;7.50;;
2998;SDS011;1509;51.964;7.628;2023-07-29T05:18:09;10.10;;;7.00;;
2998;SDS011;1509;51.964;7.628;2023-07-29T05:20:35;9.53;;;7.93;;
2998;SDS011;1509;51.964;7.628;2023-07-29T05:23:00;11.10;;;8.03;;
2998;SDS011;1509;51.964;7.628;2023-07-29T05:25:26;7.87;;;7.07;;
2998;SDS011;1509;51.964;7.628;2023-07-29T05:27:52;8.63;;;6.80;;
2998;SDS011;1509;51.964;7.628;2023-07-29T05:30:17;9.73;;;6.83;;
2998;SDS011;1509;51.964;7.628;2023-07-29T05:32:43;9.43;;;7.37;;
2998;SDS011;1509;51.964;7.628;2023-07-29T05:35:09;8.70;;;7.30;;
2998;SDS011;1509;51.964;7.628;2023-07-29T05:37:37;11.77;;;7.70;;
2998;SDS011;1509;51.964;7.628;2023-07-29T05:40:04;10.73;;;7.93;;
2998;SDS011;1509;51.964;7.628;2023-07-29T05:42:31;9.30;;;7.80;;
2998;SDS011;1509;51.964;7.628;2023-07-29T05:44:57;15.00;;;8.20;;
2998;SDS011;1509;51.964;7.628;2023-07-29T05:47:23;12.43;;;9.90;;
2998;SDS011;1509;51.964;7.628;2023-07-29T05:49:48;11.57;;;8.80;;
2998;SDS011;1509;51.964;7.628;2023-07-29T05:52:14;11.00;;;8.50;;
2998;SDS011;1509;51.964;7.628;2023-07-29T05:54:40;10.30;;;7.87;;
2998;SDS011;1509;51.964;7.628;2023-07-29T05:57:07;9.80;;;7.73;;
2998;SDS011;1509;51.964;7.628;2023-07-29T05:59:36;11.73;;;7.80;;
2998;SDS011;1509;51.964;7.628;2023-07-29T06:02:02;10.37;;;7.90;;
2998;SDS011;1509;51.964;7.628;2023-07-29T06:04:28;12.23;;;8.10;;
2998;SDS011;1509;51.964;7.628;2023-07-29T06:06:53;12.73;;;7.57;;
2998;SDS011;1509;51.964;7.628;2023-07-29T06:09:20;9.73;;;7.67;;
2998;SDS011;1509;51.964;7.628;2023-07-29T06:11:50;10.33;;;8.30;;
2998;SDS011;1509;51.964;7.628;2023-07-29T06:14:16;11.97;;;7.80;;
2998;SDS011;1509;51.964;7.628;2023-07-29T06:16:41;10.57;;;8.03;;
2998;SDS011;1509;51.964;7.628;2023-07-29T06:19:07;10.30;;;7.90;;
2998;SDS011;1509;51.964;7.628;2023-07-29T06:21:33;10.67;;;7.93;;
2998;SDS011;1509;51.964;7.628;2023-07-29T06:23:59;9.57;;;8.57;;
2998;SDS011;1509;51.964;7.628;2023-07-29T06:26:25;12.13;;;7.93;;
2998;SDS011;1509;51.964;7.628;2023-07-29T06:28:51;14.23;;;9.47;;
2998;SDS011;1509;51.964;7.628;2023-07-29T06:31:16;10.80;;;9.10;;
2998;SDS011;1509;51.964;7.628;2023-07-29T06:33:42;10.60;;;8.63;;
2998;SDS011;1509;51.964;7.628;2023-07-29T06:36:08;13.83;;;9.87;;
2998;SDS011;1509;51.964;7.628;2023-07-29T06:38:33;10.50;;;8.70;;
2998;SDS011;1509;51.964;7.628;2023-07-29T06:40:59;12.07;;;9.10;;
2998;SDS011;1509;51.964;7.628;2023-07-29T06:43:25;9.77;;;8.53;;
2998;SDS011;1509;51.964;7.628;2023-07-29T06:45:50;14.40;;;8.97;;
2998;SDS011;1509;51.964;7.628;2023-07-29T06:48:16;9.60;;;8.30;;
2998;SDS011;1509;51.964;7.628;2023-07-29T06:50:43;12.13;;;9.88;;
2998;SDS011;1509;51.964;7.628;2023-07-29T06:53:09;8.73;;;7.23;;
2998;SDS011;1509;51.964;7.628;2023-07-29T06:55:35;8.57;;;6.73;;
2998;SDS011;1509;51.964;7.628;2023-07-29T06:58:00;7.83;;;6.33;;
2998;SDS011;1509;51.964;7.628;2023-07-29T07:00:26;8.13;;;6.23;;
2998;SDS011;1509;51.964;7.628;2023-07-29T07:02:52;7.93;;;6.00;;
2998;SDS011;1509;51.964;7.628;2023-07-29T07:05:18;7.23;;;5.17;;
2998;SDS011;1509;51.964;7.628;2023-07-29T07:07:43;7.83;;;4.03;;
2998;SDS011;1509;51.964;7.628;2023-07-29T07:10:09;4.83;;;3.80;;
2998;SDS011;1509;51.964;7.628;2023-07-29T07:12:35;3.63;;;3.20;;
2998;SDS011;1509;51.964;7.628;2023-07-29T07:15:00;4.73;;;2.83;;
2998;SDS011;1509;51.964;7.628;2023-07-29T07:17:26;4.40;;;2.57;;
2998;SDS011;1509;51.964;7.628;2023-07-29T07:19:54;3.93;;;2.50;;
2998;SDS011;1509;51.964;7.628;2023-07-29T07:22:19;3.50;;;2.70;;
2998;SDS011;1509;51.964;7.628;2023-07-29T07:24:45;3.70;;;2.90;;
2998;SDS011;1509;51.964;7.628;2023-07-29T07:27:11;4.00;;;2.93;;
2998;SDS011;1509;51.964;7.628;2023-07-29T07:29:36;6.67;;;2.87;;
2998;SDS011;1509;51.964;7.628;2023-07-29T07:32:02;3.57;;;2.03;;
2998;SDS011;1509;51.964;7.628;2023-07-29T07:34:28;3.93;;;2.13;;
2998;SDS011;1509;51.964;7.628;2023-07-29T07:36:53;3.27;;;1.80;;
2998;SDS011;1509;51.964;7.628;2023-07-29T07:39:19;4.13;;;2.20;;
2998;SDS011;1509;51.964;7.628;2023-07-29T07:41:44;4.00;;;1.73;;
2998;SDS011;1509;51.964;7.628;2023-07-29T07:44:10;3.07;;;1.97;;
2998;SDS011;1509;51.964;7.628;2023-07-29T07:46:40;2.07;;;1.60;;
2998;SDS011;1509;51.964;7.628;2023-07-29T07:49:06;2.70;;;1.57;;
2998;SDS011;1509;51.964;7.628;2023-07-29T07:51:31;2.50;;;1.77;;
2998;SDS011;1509;51.964;7.628;2023-07-29T07:53:57;4.33;;;1.93;;
2998;SDS011;1509;51.964;7.628;2023-07-29T07:56:23;3.97;;;2.30;;
2998;SDS011;1509;51.964;7.628;2023-07-29T07:58:48;2.77;;;1.90;;
2998;SDS011;1509;51.964;7.628;2023-07-29T08:01:14;3.30;;;1.87;;
2998;SDS011;1509;51.964;7.628;2023-07-29T08:03:39;3.37;;;2.10;;
2998;SDS011;1509;51.964;7.628;2023-07-29T08:06:05;3.83;;;2.03;;
2998;SDS011;1509;51.964;7.628;2023-07-29T08:08:31;4.37;;;2.13;;
2998;SDS011;1509;51.964;7.628;2023-07-29T08:10:56;3.30;;;1.77;;
2998;SDS011;1509;51.964;7.628;2023-07-29T08:13:23;5.30;;;1.90;;
2998;SDS011;1509;51.964;7.628;2023-07-29T08:15:49;6.30;;;2.37;;
2998;SDS011;1509;51.964;7.628;2023-07-29T08:18:17;4.03;;;2.47;;
2998;SDS011;1509;51.964;7.628;2023-07-29T08:20:53;4.07;;;2.43;;
2998;SDS011;1509;51.964;7.628;2023-07-29T08:23:23;3.23;;;1.73;;
2998;SDS011;1509;51.964;7.628;2023-07-29T08:25:56;2.90;;;2.03;;
2998;SDS011;1509;51.964;7.628;2023-07-29T08:28:30;2.90;;;2.13;;
2998;SDS011;1509;51.964;7.628;2023-07-29T08:30:59;4.30;;;2.20;;
2998;SDS011;1509;51.964;7.628;2023-07-29T08:33:25;4.03;;;1.93;;
2998;SDS011;1509;51.964;7.628;2023-07-29T08:35:52;2.40;;;1.40;;
2998;SDS011;1509;51.964;7.628;2023-07-29T08:38:17;3.63;;;1.90;;
2998;SDS011;1509;51.964;7.628;2023-07-29T08:40:50;4.20;;;1.73;;
2998;SDS011;1509;51.964;7.628;2023-07-29T08:43:22;3.00;;;1.73;;
2998;SDS011;1509;51.964;7.628;2023-07-29T08:45:55;2.40;;;1.80;;
2998;SDS011;1509;51.964;7.628;2023-07-29T08:48:32;3.17;;;2.00;;
2998;SDS011;1509;51.964;7.628;2023-07-29T08:51:10;2.17;;;1.63;;
2998;SDS011;1509;51.964;7.628;2023-07-29T08:53:36;2.30;;;1.47;;
2998;SDS011;1509;51.964;7.628;2023-07-29T08:56:03;3.00;;;1.70;;
2998;SDS011;1509;51.964;7.628;2023-07-29T08:58:30;3.03;;;1.43;;
2998;SDS011;1509;51.964;7.628;2023-07-29T09:00:56;2.30;;;1.50;;
2998;SDS011;1509;51.964;7.628;2023-07-29T09:03:22;3.00;;;1.70;;
2998;SDS011;1509;51.964;7.628;2023-07-29T09:05:48;3.83;;;1.80;;
2998;SDS011;1509;51.964;7.628;2023-07-29T09:08:14;3.00;;;1.73;;
2998;SDS011;1509;51.964;7.628;2023-07-29T09:10:40;2.50;;;1.30;;
2998;SDS011;1509;51.964;7.628;2023-07-29T09:13:06;1.90;;;1.30;;
2998;SDS011;1509;51.964;7.628;2023-07-29T09:15:33;6.07;;;1.53;;
2998;SDS011;1509;51.964;7.628;2023-07-29T09:18:08;2.10;;;1.30;;
2998;SDS011;1509;51.964;7.628;2023-07-29T09:20:39;2.40;;;1.70;;
2998;SDS011;1509;51.964;7.628;2023-07-29T09:23:06;3.80;;;1.40;;
2998;SDS011;1509;51.964;7.628;2023-07-29T09:25:35;2.30;;;1.40;;
2998;SDS011;1509;51.964;7.628;2023-07-29T09:28:01;2.17;;;1.23;;
2998;SDS011;1509;51.964;7.628;2023-07-29T09:30:32;1.70;;;1.23;;
2998;SDS011;1509;51.964;7.628;2023-07-29T09:32:57;2.60;;;1.67;;
2998;SDS011;1509;51.964;7.628;2023-07-29T09:35:24;2.90;;;1.63;;
2998;SDS011;1509;51.964;7.628;2023-07-29T09:37:52;1.80;;;1.17;;
2998;SDS011;1509;51.964;7.628;2023-07-29T09:40:18;2.40;;;1.43;;
2998;SDS011;1509;51.964;7.628;2023-07-29T09:42:47;2.13;;;1.00;;
2998;SDS011;1509;51.964;7.628;2023-07-29T09:47:47;3.47;;;1.47;;
2998;SDS011;1509;51.964;7.628;2023-07-29T09:50:13;2.20;;;1.10;;
2998;SDS011;1509;51.964;7.628;2023-07-29T09:52:39;2.27;;;1.00;;
2998;SDS011;1509;51.964;7.628;2023-07-29T09:55:04;2.10;;;1.20;;
2998;SDS011;1509;51.964;7.628;2023-07-29T09:57:31;2.43;;;1.53;;
2998;SDS011;1509;51.964;7.628;2023-07-29T09:59:57;2.73;;;1.10;;
2998;SDS011;1509;51.964;7.628;2023-07-29T10:02:23;2.10;;;1.30;;
2998;SDS011;1509;51.964;7.628;2023-07-29T10:04:50;2.90;;;1.20;;
2998;SDS011;1509;51.964;7.628;2023-07-29T10:07:17;3.00;;;1.10;;
2998;SDS011;1509;51.964;7.628;2023-07-29T10:09:44;3.40;;;1.10;;
2998;SDS011;1509;51.964;7.628;2023-07-29T10:12:10;3.10;;;1.20;;
2998;SDS011;1509;51.964;7.628;2023-07-29T10:14:36;2.40;;;1.30;;
2998;SDS011;1509;51.964;7.628;2023-07-29T10:17:04;2.70;;;1.30;;
2998;SDS011;1509;51.964;7.628;2023-07-29T10:19:30;2.17;;;1.10;;
2998;SDS011;1509;51.964;7.628;2023-07-29T10:21:57;1.70;;;1.20;;
2998;SDS011;1509;51.964;7.628;2023-07-29T10:24:28;2.47;;;1.43;;
2998;SDS011;1509;51.964;7.628;2023-07-29T10:26:58;2.73;;;1.63;;
2998;SDS011;1509;51.964;7.628;2023-07-29T10:29:28;2.40;;;1.40;;
2998;SDS011;1509;51.964;7.628;2023-07-29T10:32:01;2.17;;;1.27;;
2998;SDS011;1509;51.964;7.628;2023-07-29T10:34:29;1.60;;;1.10;;
2998;SDS011;1509;51.964;7.628;2023-07-29T10:36:55;1.80;;;1.10;;
2998;SDS011;1509;51.964;7.628;2023-07-29T10:39:21;2.30;;;1.20;;
2998;SDS011;1509;51.964;7.628;2023-07-29T10:47:11;2.53;;;1.30;;
2998;SDS011;1509;51.964;7.628;2023-07-29T10:49:41;3.80;;;1.50;;
2998;SDS011;1509;51.964;7.628;2023-07-29T10:52:13;2.37;;;1.40;;
2998;SDS011;1509;51.964;7.628;2023-07-29T10:54:44;2.17;;;1.33;;
2998;SDS011;1509;51.964;7.628;2023-07-29T10:57:14;2.20;;;1.30;;
2998;SDS011;1509;51.964;7.628;2023-07-29T10:59:40;2.20;;;1.20;;
2998;SDS011;1509;51.964;7.628;2023-07-29T11:02:17;2.40;;;1.40;;
2998;SDS011;1509;51.964;7.628;2023-07-29T11:04:46;4.03;;;1.60;;
2998;SDS011;1509;51.964;7.628;2023-07-29T11:17:36;6.00;;;1.63;;
2998;SDS011;1509;51.964;7.628;2023-07-29T11:20:05;2.07;;;1.20;;
2998;SDS011;1509;51.964;7.628;2023-07-29T11:22:32;1.80;;;1.23;;
2998;SDS011;1509;51.964;7.628;2023-07-29T11:24:58;2.83;;;1.80;;
2998;SDS011;1509;51.964;7.628;2023-07-29T11:27:24;2.20;;;1.50;;
2998;SDS011;1509;51.964;7.628;2023-07-29T11:29:49;3.07;;;1.53;;
2998;SDS011;1509;51.964;7.628;2023-07-29T11:32:15;2.13;;;1.30;;
2998;SDS011;1509;51.964;7.628;2023-07-29T11:34:41;2.40;;;1.80;;
2998;SDS011;1509;51.964;7.628;2023-07-29T11:37:11;4.63;;;1.70;;
2998;SDS011;1509;51.964;7.628;2023-07-29T11:39:42;2.50;;;1.70;;
2998;SDS011;1509;51.964;7.628;2023-07-29T11:42:11;2.20;;;1.63;;
2998;SDS011;1509;51.964;7.628;2023-07-29T11:44:38;3.37;;;1.60;;
2998;SDS011;1509;51.964;7.628;2023-07-29T11:47:10;3.80;;;1.70;;
2998;SDS011;1509;51.964;7.628;2023-07-29T11:49:37;1.70;;;1.33;;
2998;SDS011;1509;51.964;7.628;2023-07-29T11:52:06;2.33;;;1.50;;
2998;SDS011;1509;51.964;7.628;2023-07-29T11:54:36;3.80;;;1.40;;
2998;SDS011;1509;51.964;7.628;2023-07-29T11:57:03;2.03;;;1.40;;
2998;SDS011;1509;51.964;7.628;2023-07-29T11:59:33;2.20;;;1.90;;
2998;SDS011;1509;51.964;7.628;2023-07-29T12:02:00;2.17;;;1.37;;
2998;SDS011;1509;51.964;7.628;2023-07-29T12:04:27;2.50;;;1.40;;
2998;SDS011;1509;51.964;7.628;2023-07-29T12:06:54;1.80;;;1.30;;
2998;SDS011;1509;51.964;7.628;2023-07-29T12:09:20;3.53;;;1.80;;
2998;SDS011;1509;51.964;7.628;2023-07-29T12:11:46;4.33;;;1.87;;
2998;SDS011;1509;51.964;7.628;2023-07-29T12:14:12;2.70;;;2.40;;
2998;SDS011;1509;51.964;7.628;2023-07-29T12:16:41;3.07;;;2.00;;
2998;SDS011;1509;51.964;7.628;2023-07-29T12:19:08;3.13;;;1.70;;
2998;SDS011;1509;51.964;7.628;2023-07-29T12:21:33;1.80;;;1.30;;
2998;SDS011;1509;51.964;7.628;2023-07-29T12:24:01;2.23;;;1.67;;
2998;SDS011;1509;51.964;7.628;2023-07-29T12:26:28;2.00;;;1.50;;
2998;SDS011;1509;51.964;7.628;2023-07-29T12:28:54;3.50;;;1.80;;
2998;SDS011;1509;51.964;7.628;2023-07-29T12:31:21;2.60;;;1.90;;
2998;SDS011;1509;51.964;7.628;2023-07-29T12:33:47;3.50;;;2.17;;
2998;SDS011;1509;51.964;7.628;2023-07-29T12:36:12;3.23;;;2.30;;
2998;SDS011;1509;51.964;7.628;2023-07-29T12:38:38;2.60;;;1.70;;
2998;SDS011;1509;51.964;7.628;2023-07-29T12:41:03;2.37;;;1.80;;
2998;SDS011;1509;51.964;7.628;2023-07-29T12:43:29;2.37;;;1.60;;
2998;SDS011;1509;51.964;7.628;2023-07-29T12:45:56;2.97;;;1.90;;
2998;SDS011;1509;51.964;7.628;2023-07-29T12:48:22;2.40;;;1.70;;
2998;SDS011;1509;51.964;7.628;2023-07-29T12:50:48;4.13;;;2.20;;
2998;SDS011;1509;51.964;7.628;2023-07-29T12:53:13;2.80;;;1.67;;
2998;SDS011;1509;51.964;7.628;2023-07-29T12:55:39;3.10;;;1.63;;
2998;SDS011;1509;51.964;7.628;2023-07-29T12:58:05;3.77;;;1.47;;
2998;SDS011;1509;51.964;7.628;2023-07-29T13:00:30;2.93;;;1.70;;
2998;SDS011;1509;51.964;7.628;2023-07-29T13:02:56;2.30;;;1.57;;
2998;SDS011;1509;51.964;7.628;2023-07-29T13:05:21;2.53;;;1.40;;
2998;SDS011;1509;51.964;7.628;2023-07-29T13:07:47;5.70;;;1.80;;
2998;SDS011;1509;51.964;7.628;2023-07-29T13:10:13;2.40;;;1.70;;
2998;SDS011;1509;51.964;7.628;2023-07-29T13:12:39;2.00;;;1.43;;
2998;SDS011;1509;51.964;7.628;2023-07-29T13:15:05;2.43;;;1.70;;
2998;SDS011;1509;51.964;7.628;2023-07-29T13:17:32;3.27;;;1.80;;
2998;SDS011;1509;51.964;7.628;2023-07-29T13:19:59;2.30;;;1.50;;
2998;SDS011;1509;51.964;7.628;2023-07-29T13:22:24;2.30;;;1.80;;
2998;SDS011;1509;51.964;7.628;2023-07-29T13:24:50;3.20;;;1.87;;
2998;SDS011;1509;51.964;7.628;2023-07-29T13:27:15;2.90;;;2.00;;
2998;SDS011;1509;51.964;7.628;2023-07-29T13:29:41;2.43;;;1.57;;
2998;SDS011;1509;51.964;7.628;2023-07-29T13:32:08;2.77;;;1.70;;
2998;SDS011;1509;51.964;7.628;2023-07-29T13:34:34;2.10;;;1.53;;
2998;SDS011;1509;51.964;7.628;2023-07-29T13:37:00;3.00;;;1.77;;
2998;SDS011;1509;51.964;7.628;2023-07-29T13:39:25;2.97;;;1.60;;
2998;SDS011;1509;51.964;7.628;2023-07-29T13:41:52;2.10;;;1.70;;
2998;SDS011;1509;51.964;7.628;2023-07-29T13:44:18;3.30;;;1.70;;
2998;SDS011;1509;51.964;7.628;2023-07-29T13:46:43;2.40;;;1.53;;
2998;SDS011;1509;51.964;7.628;2023-07-29T13:49:09;2.13;;;1.40;;
2998;SDS011;1509;51.964;7.628;2023-07-29T13:51:35;2.37;;;1.60;;
2998;SDS011;1509;51.964;7.628;2023-07-29T13:54:00;3.40;;;2.10;;
2998;SDS011;1509;51.964;7.628;2023-07-29T13:56:26;2.90;;;1.90;;
2998;SDS011;1509;51.964;7.628;2023-07-29T13:58:51;2.60;;;1.70;;
2998;SDS011;1509;51.964;7.628;2023-07-29T14:01:17;3.20;;;1.90;;
2998;SDS011;1509;51.964;7.628;2023-07-29T14:03:43;1.90;;;1.23;;
2998;SDS011;1509;51.964;7.628;2023-07-29T14:06:08;4.67;;;2.00;;
2998;SDS011;1509;51.964;7.628;2023-07-29T14:08:34;2.93;;;2.00;;
2998;SDS011;1509;51.964;7.628;2023-07-29T14:11:00;3.33;;;1.70;;
2998;SDS011;1509;51.964;7.628;2023-07-29T14:13:26;3.60;;;1.80;;
2998;SDS011;1509;51.964;7.628;2023-07-29T14:15:51;3.23;;;2.03;;
2998;SDS011;1509;51.964;7.628;2023-07-29T14:18:17;2.50;;;1.70;;
2998;SDS011;1509;51.964;7.628;2023-07-29T14:20:43;3.70;;;1.57;;
2998;SDS011;1509;51.964;7.628;2023-07-29T14:23:08;6.60;;;2.00;;
2998;SDS011;1509;51.964;7.628;2023-07-29T14:25:34;3.10;;;1.77;;
2998;SDS011;1509;51.964;7.628;2023-07-29T14:27:59;3.57;;;1.90;;
2998;SDS011;1509;51.964;7.628;2023-07-29T14:30:25;3.77;;;2.50;;
2998;SDS011;1509;51.964;7.628;2023-07-29T14:32:51;5.40;;;2.63;;
2998;SDS011;1509;51.964;7.628;2023-07-29T14:35:16;4.07;;;2.27;;
2998;SDS011;1509;51.964;7.628;2023-07-29T14:37:42;4.47;;;3.03;;
2998;SDS011;1509;51.964;7.628;2023-07-29T14:40:07;3.57;;;2.67;;
2998;SDS011;1509;51.964;7.628;2023-07-29T14:42:33;3.93;;;2.57;;
2998;SDS011;1509;51.964;7.628;2023-07-29T14:44:59;5.00;;;3.10;;
2998;SDS011;1509;51.964;7.628;2023-07-29T14:47:24;8.33;;;2.80;;
2998;SDS011;1509;51.964;7.628;2023-07-29T14:49:50;5.53;;;2.30;;
2998;SDS011;1509;51.964;7.628;2023-07-29T14:52:15;3.23;;;1.90;;
2998;SDS011;1509;51.964;7.628;2023-07-29T14:54:41;2.90;;;1.77;;
2998;SDS011;1509;51.964;7.628;2023-07-29T14:57:07;2.97;;;2.20;;
2998;SDS011;1509;51.964;7.628;2023-07-29T14:59:35;5.57;;;2.53;;
2998;SDS011;1509;51.964;7.628;2023-07-29T15:02:01;2.47;;;1.80;;
2998;SDS011;1509;51.964;7.628;2023-07-29T15:04:26;3.60;;;1.93;;
2998;SDS011;1509;51.964;7.628;2023-07-29T15:06:52;3.23;;;1.83;;
2998;SDS011;1509;51.964;7.628;2023-07-29T15:09:17;2.40;;;1.73;;
2998;SDS011;1509;51.964;7.628;2023-07-29T15:11:43;3.03;;;1.80;;
2998;SDS011;1509;51.964;7.628;2023-07-29T15:14:08;2.77;;;1.50;;
2998;SDS011;1509;51.964;7.628;2023-07-29T15:16:34;3.50;;;1.77;;
2998;SDS011;1509;51.964;7.628;2023-07-29T15:19:01;2.97;;;1.80;;
2998;SDS011;1509;51.964;7.628;2023-07-29T15:21:28;2.57;;;1.80;;
2998;SDS011;1509;51.964;7.628;2023-07-29T15:23:53;2.20;;;1.50;;
2998;SDS011;1509;51.964;7.628;2023-07-29T15:26:19;2.73;;;2.10;;
2998;SDS011;1509;51.964;7.628;2023-07-29T15:28:44;3.53;;;1.70;;
2998;SDS011;1509;51.964;7.628;2023-07-29T15:31:12;5.70;;;1.90;;
2998;SDS011;1509;51.964;7.628;2023-07-29T15:33:38;3.00;;;1.80;;
2998;SDS011;1509;51.964;7.628;2023-07-29T15:36:03;2.87;;;1.33;;